Time;durP1;ratioP1;P1;durP2;ratioP2;P2;SDS_P1;SDS_P2;PMS_P1;PMS_P2;Temp;Humidity;BMP_temperature;BMP_pressure;BME280_temperature;BME280_humidity;BME280_pressure;Samples;Min_cycle;Max_cycle;Signal;HPM_P1;HPM_P2
2022/10/13 00:00:48;;;;;;;4.03;2.60;;;11.70;99.90;;;;;;5011399;28;20517;-48
2022/10/13 00:03:15;;;;;;;4.20;2.70;;;11.90;99.90;;;;;;5011230;28;20532;-48
2022/10/13 00:05:43;;;;;;;4.50;3.23;;;11.60;99.90;;;;;;5011266;28;20479;-49
2022/10/13 00:08:11;;;;;;;4.07;2.97;;;11.80;99.90;;;;;;5011752;28;20451;-48
2022/10/13 00:10:39;;;;;;;5.13;2.50;;;11.90;99.90;;;;;;5011383;28;20547;-49
2022/10/13 00:13:07;;;;;;;3.80;2.93;;;12.00;99.90;;;;;;5011298;28;20466;-48
2022/10/13 00:15:37;;;;;;;9.30;3.13;;;12.00;99.90;;;;;;5011614;28;20532;-49
2022/10/13 00:18:06;;;;;;;5.73;3.87;;;11.90;99.90;;;;;;5011302;28;20490;-48
2022/10/13 00:20:33;;;;;;;4.50;3.27;;;11.60;99.90;;;;;;5010837;28;20499;-49
2022/10/13 00:23:00;;;;;;;3.20;2.87;;;11.40;99.90;;;;;;5010958;28;20818;-50
2022/10/13 00:25:27;;;;;;;6.63;2.90;;;11.70;99.90;;;;;;5011007;28;20576;-48
2022/10/13 00:27:54;;;;;;;3.53;2.40;;;11.80;99.90;;;;;;5011046;28;20526;-49
2022/10/13 00:30:21;;;;;;;5.60;2.97;;;11.70;99.90;;;;;;5010731;28;20539;-50
2022/10/13 00:32:48;;;;;;;4.17;2.67;;;11.60;99.90;;;;;;5010981;28;20528;-48
2022/10/13 00:35:16;;;;;;;2.37;1.83;;;11.80;99.90;;;;;;5010896;28;20451;-48
2022/10/13 00:37:43;;;;;;;3.30;2.30;;;11.90;99.90;;;;;;5011249;28;20542;-49
2022/10/13 00:40:10;;;;;;;6.20;2.30;;;11.50;99.90;;;;;;5010676;28;20566;-49
2022/10/13 00:42:40;;;;;;;3.33;2.83;;;11.30;99.90;;;;;;5010830;28;20884;-50
2022/10/13 00:48:30;;;;;;;4.73;2.73;;;11.60;99.90;;;;;;5010694;28;20391;-51
2022/10/13 00:50:59;;;;;;;4.23;2.90;;;11.80;99.90;;;;;;5010827;28;20469;-50
2022/10/13 00:53:32;;;;;;;7.10;2.70;;;11.80;99.90;;;;;;5010512;28;20479;-51
2022/10/13 00:55:59;;;;;;;2.90;2.60;;;11.80;99.90;;;;;;5010720;28;20871;-51
2022/10/13 00:58:30;;;;;;;5.70;3.00;;;11.70;99.90;;;;;;5010573;28;20448;-50
2022/10/13 01:00:57;;;;;;;5.33;2.80;;;11.70;99.90;;;;;;5010441;28;20820;-52
2022/10/13 01:03:25;;;;;;;4.43;2.93;;;11.90;99.90;;;;;;5010221;28;20554;-50
2022/10/13 01:05:56;;;;;;;3.97;2.70;;;12.00;99.90;;;;;;5010515;28;20571;-50
2022/10/13 01:08:26;;;;;;;3.77;2.60;;;12.00;99.90;;;;;;5010585;28;20493;-51
2022/10/13 01:11:03;;;;;;;3.30;2.70;;;12.10;99.90;;;;;;5010194;28;21020;-51
2022/10/13 01:13:38;;;;;;;2.87;2.30;;;12.00;99.90;;;;;;5010359;28;20981;-51
2022/10/13 01:16:13;;;;;;;4.63;2.33;;;11.90;99.90;;;;;;5010295;28;20471;-50
2022/10/13 01:18:45;;;;;;;4.90;2.83;;;11.30;99.90;;;;;;5010393;28;20472;-50
2022/10/13 01:21:24;;;;;;;4.73;2.60;;;11.00;99.90;;;;;;5010210;28;20546;-48
2022/10/13 01:24:31;;;;;;;4.13;2.53;;;11.10;99.90;;;;;;5009948;28;20496;-48
2022/10/13 01:27:12;;;;;;;3.90;2.73;;;11.50;99.90;;;;;;5010324;28;20586;-51
2022/10/13 01:30:16;;;;;;;3.37;2.87;;;11.60;99.90;;;;;;5010011;28;20551;-51
2022/10/13 01:32:57;;;;;;;3.03;2.73;;;11.30;99.90;;;;;;5010223;28;20473;-50
2022/10/13 01:35:31;;;;;;;3.93;2.40;;;11.60;99.90;;;;;;5010181;28;20440;-51
2022/10/13 01:38:05;;;;;;;3.00;2.20;;;11.30;99.90;;;;;;5010320;28;20470;-51
2022/10/13 01:40:39;;;;;;;6.03;3.10;;;11.50;99.90;;;;;;5009732;28;20468;-50
2022/10/13 01:43:11;;;;;;;4.23;2.13;;;11.70;99.90;;;;;;5009542;28;20479;-50
2022/10/13 01:45:47;;;;;;;3.70;3.30;;;11.80;99.90;;;;;;5009964;28;20479;-51
2022/10/13 01:48:15;;;;;;;5.13;2.63;;;11.80;99.90;;;;;;5009771;28;21009;-53
2022/10/13 01:50:43;;;;;;;3.70;2.97;;;11.70;99.90;;;;;;5009807;28;20519;-51
2022/10/13 01:53:12;;;;;;;3.70;2.90;;;11.70;99.90;;;;;;5009286;28;20714;-52
2022/10/13 01:55:49;;;;;;;5.40;2.10;;;11.70;99.90;;;;;;5009254;28;20455;-50
2022/10/13 01:58:16;;;;;;;4.53;2.50;;;11.30;99.90;;;;;;5010022;28;20486;-50
2022/10/13 02:01:00;;;;;;;4.83;2.80;;;10.60;99.90;;;;;;5010513;28;20823;-51
2022/10/13 02:03:36;;;;;;;2.90;2.40;;;10.50;99.90;;;;;;5009687;28;20511;-51
2022/10/13 02:06:12;;;;;;;3.37;2.33;;;11.20;99.90;;;;;;5009614;28;20511;-51
2022/10/13 02:08:44;;;;;;;4.40;3.10;;;11.40;99.90;;;;;;5009514;28;20515;-51
2022/10/13 02:11:15;;;;;;;3.43;2.43;;;11.30;99.90;;;;;;5009361;28;20472;-50
2022/10/13 02:13:53;;;;;;;3.17;2.73;;;11.50;99.90;;;;;;5009332;28;20485;-51
2022/10/13 02:16:22;;;;;;;8.03;2.93;;;11.50;99.90;;;;;;5009501;28;20467;-51
2022/10/13 02:18:51;;;;;;;4.13;2.37;;;11.40;99.90;;;;;;5009676;28;20439;-52
2022/10/13 02:21:18;;;;;;;2.40;1.80;;;11.50;99.90;;;;;;5009075;28;20472;-51
2022/10/13 02:23:46;;;;;;;3.53;2.50;;;11.50;99.90;;;;;;5009143;28;20504;-51
2022/10/13 02:26:13;;;;;;;4.23;2.90;;;11.40;99.90;;;;;;5009193;28;20471;-51
2022/10/13 02:28:41;;;;;;;6.13;3.13;;;11.10;99.90;;;;;;5009409;28;20810;-52
2022/10/13 02:31:08;;;;;;;4.20;2.73;;;11.30;99.90;;;;;;5009214;28;20504;-51
2022/10/13 02:33:36;;;;;;;3.77;2.47;;;11.40;99.90;;;;;;5008835;28;20476;-50
2022/10/13 02:36:04;;;;;;;5.10;2.50;;;11.60;99.90;;;;;;5009198;28;20539;-51
2022/10/13 02:38:30;;;;;;;5.93;2.30;;;11.50;99.90;;;;;;5009584;28;20722;-49
2022/10/13 02:40:57;;;;;;;2.83;2.53;;;11.50;99.90;;;;;;5009329;28;20892;-49
2022/10/13 02:43:24;;;;;;;3.00;2.57;;;11.40;99.90;;;;;;5009090;28;20486;-48
2022/10/13 02:45:51;;;;;;;3.10;2.43;;;11.20;99.90;;;;;;5008765;28;20562;-49
2022/10/13 02:48:18;;;;;;;4.00;2.83;;;11.10;99.90;;;;;;5008740;28;20480;-49
2022/10/13 02:50:46;;;;;;;5.30;2.47;;;11.20;99.90;;;;;;5008663;28;20549;-49
2022/10/13 02:53:13;;;;;;;3.13;2.57;;;11.00;99.90;;;;;;5009035;28;20455;-48
2022/10/13 02:55:40;;;;;;;2.13;1.73;;;11.00;99.90;;;;;;5008973;28;20492;-48
2022/10/13 02:58:07;;;;;;;3.30;2.13;;;11.30;99.90;;;;;;5008649;28;20447;-48
2022/10/13 03:00:34;;;;;;;4.07;2.70;;;11.40;99.90;;;;;;5008525;28;20904;-49
2022/10/13 03:03:01;;;;;;;2.87;2.10;;;11.30;99.90;;;;;;5008600;28;20533;-48
2022/10/13 03:05:28;;;;;;;7.53;2.40;;;11.40;99.90;;;;;;5008579;28;20563;-50
2022/10/13 03:07:56;;;;;;;2.57;2.20;;;11.50;99.90;;;;;;5008374;28;20887;-50
2022/10/13 03:10:23;;;;;;;4.60;2.50;;;11.20;99.90;;;;;;5008607;28;20551;-49
2022/10/13 03:12:50;;;;;;;3.37;2.20;;;10.70;99.90;;;;;;5008842;28;20476;-48
2022/10/13 03:15:17;;;;;;;3.33;2.33;;;10.60;99.90;;;;;;5008690;28;20443;-48
2022/10/13 03:17:44;;;;;;;2.53;2.00;;;10.70;99.90;;;;;;5008773;28;20448;-48
2022/10/13 03:20:11;;;;;;;2.33;2.10;;;11.10;99.90;;;;;;5008039;28;20573;-48
2022/10/13 03:22:38;;;;;;;2.70;2.50;;;11.20;99.90;;;;;;5008248;28;20443;-49
2022/10/13 03:25:07;;;;;;;3.90;2.50;;;11.30;99.90;;;;;;5008316;28;20478;-48
2022/10/13 03:27:34;;;;;;;4.33;2.60;;;11.40;99.90;;;;;;5008422;28;20519;-50
2022/10/13 03:30:02;;;;;;;3.50;2.07;;;11.50;99.90;;;;;;5008359;28;20545;-50
2022/10/13 03:32:30;;;;;;;6.37;2.37;;;11.60;99.90;;;;;;5008339;28;20822;-50
2022/10/13 03:34:57;;;;;;;3.90;2.03;;;11.50;99.90;;;;;;5008214;28;20997;-50
2022/10/13 03:37:24;;;;;;;4.17;2.27;;;11.50;99.90;;;;;;5008476;28;20864;-50
2022/10/13 03:39:51;;;;;;;3.77;2.60;;;11.40;99.90;;;;;;5008244;28;20571;-50
2022/10/13 03:42:19;;;;;;;6.47;1.90;;;11.40;99.90;;;;;;5008052;28;20532;-50
2022/10/13 03:44:47;;;;;;;3.73;2.50;;;11.40;99.90;;;;;;5007761;28;20504;-51
2022/10/13 03:47:14;;;;;;;2.63;2.30;;;11.30;99.90;;;;;;5008084;28;20920;-50
2022/10/13 03:49:41;;;;;;;3.10;1.90;;;11.10;99.90;;;;;;5008467;28;20502;-52
2022/10/13 03:52:08;;;;;;;2.40;2.03;;;10.80;99.90;;;;;;5008452;28;20527;-50
2022/10/13 03:54:35;;;;;;;3.30;2.10;;;10.90;99.90;;;;;;5008244;28;20451;-50
2022/10/13 03:57:02;;;;;;;3.43;2.57;;;10.80;99.90;;;;;;5008311;28;20526;-51
2022/10/13 03:59:31;;;;;;;3.00;2.30;;;10.80;99.90;;;;;;5007621;28;20554;-50
2022/10/13 04:01:57;;;;;;;3.50;2.00;;;10.80;99.90;;;;;;5008182;28;20533;-50
2022/10/13 04:04:24;;;;;;;6.00;2.70;;;10.70;99.90;;;;;;5007926;28;20440;-50
2022/10/13 04:06:51;;;;;;;3.00;1.93;;;10.90;99.90;;;;;;5008113;28;20522;-51
2022/10/13 04:09:18;;;;;;;5.40;2.73;;;10.90;99.90;;;;;;5008077;28;20464;-50
2022/10/13 04:11:45;;;;;;;2.90;1.90;;;10.60;99.90;;;;;;5007835;28;20918;-51
2022/10/13 04:14:12;;;;;;;5.03;2.40;;;10.70;99.90;;;;;;5008048;28;20526;-51
2022/10/13 04:16:40;;;;;;;5.00;1.70;;;10.80;99.90;;;;;;5008029;28;20479;-52
2022/10/13 04:19:07;;;;;;;5.17;2.90;;;11.00;99.90;;;;;;5008273;28;20482;-52
2022/10/13 04:21:35;;;;;;;5.10;3.00;;;11.10;99.90;;;;;;5011012;28;20527;-51
2022/10/13 04:24:02;;;;;;;3.17;2.90;;;11.10;99.90;;;;;;5010857;28;20988;-50
2022/10/13 04:26:31;;;;;;;3.43;2.30;;;10.90;99.90;;;;;;5011145;28;21004;-52
2022/10/13 04:28:59;;;;;;;3.57;2.90;;;10.80;99.90;;;;;;5011075;28;20531;-51
2022/10/13 04:31:28;;;;;;;5.20;3.10;;;10.90;99.90;;;;;;5011102;28;20478;-51
2022/10/13 04:33:57;;;;;;;4.27;3.00;;;11.00;99.90;;;;;;5010772;28;20528;-51
2022/10/13 04:36:24;;;;;;;3.93;2.93;;;10.90;99.90;;;;;;5010842;28;20866;-50
2022/10/13 04:38:52;;;;;;;5.13;4.73;;;10.90;99.90;;;;;;5010822;28;20530;-50
2022/10/13 04:41:19;;;;;;;9.67;7.63;;;10.90;99.90;;;;;;5011105;28;20451;-51
2022/10/13 04:43:48;;;;;;;10.63;4.50;;;11.00;99.90;;;;;;5011044;28;20526;-50
2022/10/13 04:46:18;;;;;;;5.43;4.50;;;10.90;99.90;;;;;;5011030;28;20515;-50
2022/10/13 04:48:45;;;;;;;7.07;4.00;;;10.90;99.90;;;;;;5010661;28;20571;-51
2022/10/13 04:51:15;;;;;;;3.77;2.97;;;11.00;99.90;;;;;;5011064;28;20502;-50
2022/10/13 04:53:43;;;;;;;4.90;3.67;;;11.00;99.90;;;;;;5010940;28;20439;-50
2022/10/13 04:56:12;;;;;;;3.30;2.90;;;11.00;99.90;;;;;;5011020;28;20800;-50
2022/10/13 04:58:40;;;;;;;4.30;2.93;;;11.00;99.90;;;;;;5010579;28;20483;-50
2022/10/13 05:01:11;;;;;;;8.50;7.70;;;11.00;99.90;;;;;;5010428;28;20560;-50
2022/10/13 05:03:38;;;;;;;6.10;5.40;;;11.00;99.90;;;;;;5010250;28;20443;-51
2022/10/13 05:06:06;;;;;;;6.27;5.67;;;10.80;99.90;;;;;;5010310;28;20515;-50
2022/10/13 05:08:36;;;;;;;18.77;17.20;;;10.90;99.90;;;;;;5010531;28;20475;-51
2022/10/13 05:11:03;;;;;;;28.37;25.87;;;10.90;99.90;;;;;;5010138;28;20866;-50
2022/10/13 05:13:30;;;;;;;8.80;6.60;;;10.90;99.90;;;;;;5010516;28;20524;-50
2022/10/13 05:15:57;;;;;;;5.10;4.70;;;10.90;99.90;;;;;;5010441;28;21006;-50
2022/10/13 05:18:25;;;;;;;8.07;5.00;;;11.00;99.90;;;;;;5010390;28;20472;-51
2022/10/13 05:20:51;;;;;;;5.20;4.70;;;10.90;99.90;;;;;;5010263;28;20499;-50
2022/10/13 05:23:18;;;;;;;5.10;3.93;;;10.80;99.90;;;;;;5010240;28;20505;-50
2022/10/13 05:25:47;;;;;;;6.63;2.73;;;10.60;99.90;;;;;;5010009;28;20523;-51
2022/10/13 05:28:13;;;;;;;4.20;2.30;;;10.10;99.90;;;;;;5009977;28;21080;-50
2022/10/13 05:30:40;;;;;;;4.03;2.53;;;10.40;99.90;;;;;;5009507;28;20546;-50
2022/10/13 05:33:08;;;;;;;5.07;2.80;;;10.30;99.90;;;;;;5009823;28;20517;-51
2022/10/13 05:35:34;;;;;;;3.20;2.57;;;10.40;99.90;;;;;;5010173;28;20452;-50
2022/10/13 05:38:01;;;;;;;5.00;2.33;;;10.50;99.90;;;;;;5009916;28;20474;-50
2022/10/13 05:40:28;;;;;;;7.53;5.30;;;10.60;99.90;;;;;;5010002;28;20543;-51
2022/10/13 05:42:57;;;;;;;6.00;4.33;;;10.60;99.90;;;;;;5009772;28;20548;-50
2022/10/13 05:45:24;;;;;;;5.40;4.87;;;10.30;99.90;;;;;;5009823;28;20444;-50
2022/10/13 05:47:51;;;;;;;5.67;5.07;;;10.00;99.90;;;;;;5009992;28;20479;-52
2022/10/13 05:50:18;;;;;;;3.60;3.07;;;10.10;99.90;;;;;;5009658;28;21060;-50
2022/10/13 05:52:45;;;;;;;4.37;2.90;;;10.20;99.90;;;;;;5009697;28;20443;-50
2022/10/13 05:55:14;;;;;;;3.37;2.23;;;10.30;99.90;;;;;;5009572;28;20444;-51
2022/10/13 05:57:44;;;;;;;5.40;4.13;;;10.00;99.90;;;;;;5010162;28;20528;-51
2022/10/13 06:00:16;;;;;;;3.23;2.33;;;10.00;99.90;;;;;;5009367;28;20928;-50
2022/10/13 06:02:49;;;;;;;3.10;2.17;;;10.30;99.90;;;;;;5009652;28;20471;-50
2022/10/13 06:05:19;;;;;;;2.57;2.30;;;10.40;99.90;;;;;;5009289;28;21038;-50
2022/10/13 06:07:47;;;;;;;3.67;3.07;;;10.30;99.90;;;;;;5009473;28;20907;-50
2022/10/13 06:10:14;;;;;;;3.70;2.77;;;10.40;99.90;;;;;;5009469;28;20463;-50
2022/10/13 06:12:41;;;;;;;3.63;3.00;;;10.30;99.90;;;;;;5009465;28;20534;-50
2022/10/13 06:15:09;;;;;;;2.80;2.43;;;9.40;99.90;;;;;;5009907;28;20529;-50
2022/10/13 06:17:38;;;;;;;5.30;2.13;;;8.90;99.90;;;;;;5009525;28;20522;-50
2022/10/13 06:20:07;;;;;;;2.83;2.50;;;8.90;99.90;;;;;;5009228;28;20541;-51
2022/10/13 06:22:35;;;;;;;4.70;3.00;;;9.10;99.90;;;;;;5009139;28;20557;-50
2022/10/13 06:25:03;;;;;;;4.60;2.60;;;9.30;99.90;;;;;;5009376;28;20524;-50
2022/10/13 06:27:31;;;;;;;3.23;2.30;;;9.50;99.90;;;;;;5009464;28;20479;-50
2022/10/13 06:29:58;;;;;;;3.73;2.40;;;9.90;99.90;;;;;;5009283;28;21079;-50
2022/10/13 06:32:25;;;;;;;3.90;2.50;;;10.10;99.90;;;;;;5009227;28;20447;-50
2022/10/13 06:34:53;;;;;;;4.73;2.90;;;10.10;99.90;;;;;;5009005;28;20548;-51
2022/10/13 06:37:20;;;;;;;6.23;3.70;;;10.20;99.90;;;;;;5009070;28;20468;-50
2022/10/13 06:39:47;;;;;;;8.10;6.20;;;10.20;99.90;;;;;;5008972;28;20556;-50
2022/10/13 06:42:14;;;;;;;6.70;3.80;;;10.20;99.90;;;;;;5008561;28;20508;-50
2022/10/13 06:44:41;;;;;;;7.90;4.80;;;10.20;99.90;;;;;;5008867;28;20534;-50
2022/10/13 06:47:08;;;;;;;8.90;4.13;;;10.20;99.90;;;;;;5008586;28;20566;-50
2022/10/13 06:49:35;;;;;;;7.70;5.53;;;10.20;99.90;;;;;;5008913;28;20506;-51
2022/10/13 06:52:03;;;;;;;9.23;6.20;;;10.30;99.90;;;;;;5009035;28;20890;-50
2022/10/13 06:54:30;;;;;;;10.73;5.63;;;9.70;99.90;;;;;;5008556;28;20472;-50
2022/10/13 06:56:57;;;;;;;8.77;4.53;;;9.50;99.90;;;;;;5008935;28;20527;-51
2022/10/13 06:59:25;;;;;;;6.17;3.17;;;9.70;99.90;;;;;;5008683;28;20511;-51
2022/10/13 07:01:52;;;;;;;4.33;2.80;;;9.90;99.90;;;;;;5009241;28;20446;-52
2022/10/13 07:04:19;;;;;;;6.33;4.47;;;10.10;99.90;;;;;;5008900;28;20447;-50
2022/10/13 07:06:46;;;;;;;8.03;4.53;;;10.20;99.90;;;;;;5008780;28;20566;-52
2022/10/13 07:09:14;;;;;;;5.77;4.63;;;9.60;99.90;;;;;;5008822;28;20464;-51
2022/10/13 07:11:44;;;;;;;4.67;4.10;;;10.10;99.90;;;;;;5008668;28;20881;-51
2022/10/13 07:14:11;;;;;;;4.60;3.10;;;10.10;99.90;;;;;;5008227;28;21043;-50
2022/10/13 07:16:38;;;;;;;4.53;3.20;;;10.00;99.90;;;;;;5008605;28;20556;-50
2022/10/13 07:19:05;;;;;;;4.63;3.27;;;10.20;99.90;;;;;;5008754;28;20538;-52
2022/10/13 07:21:31;;;;;;;4.77;3.50;;;10.30;99.90;;;;;;5008302;28;20930;-51
2022/10/13 07:23:58;;;;;;;6.70;3.83;;;10.40;99.90;;;;;;5008150;28;20470;-51
2022/10/13 07:26:27;;;;;;;4.07;3.10;;;10.40;99.90;;;;;;5008551;28;20535;-52
2022/10/13 07:28:53;;;;;;;5.23;2.90;;;10.50;99.90;;;;;;5008555;28;20566;-51
2022/10/13 07:31:21;;;;;;;4.20;3.50;;;10.50;99.90;;;;;;5008567;28;20467;-50
2022/10/13 07:33:50;;;;;;;6.70;5.13;;;10.50;99.90;;;;;;5007594;28;20517;-51
2022/10/13 07:36:17;;;;;;;6.03;4.50;;;10.40;99.90;;;;;;5008347;28;20451;-51
2022/10/13 07:38:44;;;;;;;7.27;4.70;;;10.50;99.90;;;;;;5008875;28;20488;-52
2022/10/13 07:41:13;;;;;;;6.53;4.07;;;10.70;99.90;;;;;;5008361;28;20507;-51
2022/10/13 07:43:41;;;;;;;5.40;4.37;;;10.80;99.90;;;;;;5008356;28;20864;-50
2022/10/13 07:46:10;;;;;;;7.00;4.03;;;10.60;99.90;;;;;;5008165;28;20814;-50
2022/10/13 07:48:37;;;;;;;4.03;3.63;;;10.60;99.90;;;;;;5008307;28;20479;-52
2022/10/13 07:51:06;;;;;;;4.20;3.23;;;10.80;99.90;;;;;;5008009;28;20546;-50
2022/10/13 07:53:34;;;;;;;6.03;3.50;;;10.90;99.90;;;;;;5007841;28;20458;-51
2022/10/13 07:56:01;;;;;;;5.73;3.30;;;10.90;99.90;;;;;;5011103;28;20481;-52
2022/10/13 07:58:28;;;;;;;2.67;2.40;;;10.80;99.90;;;;;;5011520;28;20439;-50
2022/10/13 08:01:00;;;;;;;5.80;3.90;;;10.70;99.90;;;;;;5012737;28;20566;-51
2022/10/13 08:03:28;;;;;;;10.13;6.40;;;10.80;99.90;;;;;;5011403;28;20542;-51
2022/10/13 08:05:55;;;;;;;8.73;5.30;;;10.90;99.90;;;;;;5011600;28;20545;-51
2022/10/13 08:08:22;;;;;;;9.30;6.40;;;11.10;99.90;;;;;;5011837;28;20566;-50
2022/10/13 08:10:49;;;;;;;10.87;9.20;;;11.10;99.90;;;;;;5011403;28;20500;-51
2022/10/13 08:13:16;;;;;;;8.20;3.67;;;11.10;99.90;;;;;;5011144;28;20439;-51
2022/10/13 08:15:45;;;;;;;8.97;2.77;;;11.10;99.90;;;;;;5011095;28;20443;-51
2022/10/13 08:18:14;;;;;;;5.90;3.10;;;10.90;99.90;;;;;;5010969;28;20463;-51
2022/10/13 08:20:42;;;;;;;3.03;2.53;;;11.00;99.90;;;;;;5010907;28;20469;-52
2022/10/13 08:23:09;;;;;;;4.20;3.30;;;11.20;99.90;;;;;;5011054;28;20498;-52
2022/10/13 08:25:38;;;;;;;4.83;3.70;;;11.30;99.90;;;;;;5011200;28;20454;-52
2022/10/13 08:28:05;;;;;;;4.80;3.30;;;11.10;99.90;;;;;;5011121;28;20845;-52
2022/10/13 08:30:32;;;;;;;3.00;2.73;;;11.20;99.90;;;;;;5011306;28;21003;-52
2022/10/13 08:32:59;;;;;;;3.90;3.20;;;11.40;99.90;;;;;;5010279;28;20542;-50
2022/10/13 08:35:27;;;;;;;3.83;2.97;;;11.70;99.90;;;;;;5011154;28;20208;-51
2022/10/13 08:37:54;;;;;;;2.80;2.50;;;12.10;99.90;;;;;;5011052;28;20432;-51
2022/10/13 08:40:22;;;;;;;3.20;2.80;;;12.40;99.90;;;;;;5011229;28;20560;-51
2022/10/13 08:42:50;;;;;;;5.93;2.70;;;12.50;99.90;;;;;;5011309;28;20448;-51
2022/10/13 08:45:22;;;;;;;5.47;4.87;;;12.20;99.90;;;;;;5011041;28;20483;-49
2022/10/13 08:47:53;;;;;;;3.90;3.27;;;12.10;99.90;;;;;;5010769;28;20997;-49
2022/10/13 08:50:23;;;;;;;6.93;3.33;;;12.30;99.90;;;;;;5010838;28;20468;-49
2022/10/13 08:52:55;;;;;;;5.60;3.53;;;12.40;99.90;;;;;;5010677;28;20453;-49
2022/10/13 08:55:31;;;;;;;5.17;4.43;;;12.50;99.90;;;;;;5010647;28;20448;-49
2022/10/13 08:57:59;;;;;;;5.17;3.43;;;12.40;99.90;;;;;;5010844;28;20459;-49
2022/10/13 09:00:26;;;;;;;5.63;3.60;;;12.50;99.90;;;;;;5010368;28;21055;-49
2022/10/13 09:02:53;;;;;;;3.87;2.63;;;12.50;99.90;;;;;;5010557;28;20476;-50
2022/10/13 09:05:36;;;;;;;3.70;2.97;;;12.50;99.90;;;;;;5010199;28;21034;-49
2022/10/13 09:08:10;;;;;;;6.90;3.23;;;12.60;99.90;;;;;;5010210;28;20488;-50
2022/10/13 09:10:47;;;;;;;5.90;3.60;;;12.60;99.90;;;;;;5010206;28;21042;-49
2022/10/13 09:13:13;;;;;;;4.50;3.60;;;12.40;99.90;;;;;;5010390;28;20529;-49
2022/10/13 09:15:43;;;;;;;5.53;4.80;;;12.50;99.90;;;;;;5010760;28;20484;-49
2022/10/13 09:18:12;;;;;;;5.17;3.33;;;12.50;99.90;;;;;;5010275;28;20445;-50
2022/10/13 09:20:40;;;;;;;3.90;2.93;;;12.70;99.90;;;;;;5009874;28;20550;-51
2022/10/13 09:23:18;;;;;;;4.80;3.13;;;12.80;99.90;;;;;;5010199;28;20550;-50
2022/10/13 09:25:48;;;;;;;3.67;2.90;;;12.80;99.90;;;;;;5010424;28;20445;-50
2022/10/13 09:28:19;;;;;;;5.23;3.23;;;12.80;99.90;;;;;;5009950;28;21009;-51
2022/10/13 09:30:47;;;;;;;6.27;3.40;;;12.90;99.90;;;;;;5010019;28;20976;-50
2022/10/13 09:33:21;;;;;;;4.30;2.83;;;13.00;99.90;;;;;;5010087;28;20531;-50
2022/10/13 09:35:49;;;;;;;5.40;3.60;;;13.00;99.90;;;;;;5009934;28;20984;-50
2022/10/13 09:38:19;;;;;;;5.53;3.03;;;12.80;99.90;;;;;;5010069;28;20454;-50
2022/10/13 09:40:57;;;;;;;3.97;3.23;;;13.00;99.90;;;;;;5010173;28;20465;-50
2022/10/13 09:43:29;;;;;;;4.60;3.40;;;13.10;99.90;;;;;;5010059;28;20524;-50
2022/10/13 09:45:57;;;;;;;5.83;3.53;;;13.30;99.90;;;;;;5010325;28;20867;-50
2022/10/13 09:48:27;;;;;;;3.23;2.93;;;13.40;99.90;;;;;;5009883;28;20577;-50
2022/10/13 09:50:56;;;;;;;4.03;3.07;;;13.40;99.90;;;;;;5009650;28;20552;-51
2022/10/13 09:53:31;;;;;;;4.00;3.30;;;13.30;99.90;;;;;;5009586;28;20455;-50
2022/10/13 09:56:09;;;;;;;3.80;3.37;;;13.00;99.90;;;;;;5010152;28;20444;-50
2022/10/13 09:58:40;;;;;;;5.73;3.40;;;12.80;99.90;;;;;;5009826;28;20524;-50
2022/10/13 10:01:16;;;;;;;3.50;3.20;;;12.90;99.90;;;;;;5009779;28;20478;-50
2022/10/13 10:03:44;;;;;;;6.23;3.60;;;13.10;99.90;;;;;;5009672;28;21072;-50
2022/10/13 10:06:14;;;;;;;6.07;2.70;;;13.20;99.90;;;;;;5009824;28;20524;-51
2022/10/13 10:08:50;;;;;;;4.20;2.50;;;13.20;99.90;;;;;;5009830;28;20581;-51
2022/10/13 10:11:20;;;;;;;4.57;3.10;;;13.30;99.90;;;;;;5009447;28;20456;-50
2022/10/13 10:13:46;;;;;;;4.90;3.00;;;13.40;99.90;;;;;;5009438;28;20856;-50
2022/10/13 10:16:23;;;;;;;4.47;3.30;;;13.50;99.90;;;;;;5009423;28;20449;-50
2022/10/13 10:18:55;;;;;;;8.70;3.40;;;13.60;99.90;;;;;;5009140;28;20439;-50
2022/10/13 10:21:31;;;;;;;3.93;3.10;;;13.70;99.90;;;;;;5009043;28;20450;-50
2022/10/13 10:24:07;;;;;;;7.17;3.30;;;13.70;99.90;;;;;;5008857;28;20451;-50
2022/10/13 10:26:45;;;;;;;3.90;2.93;;;13.70;99.90;;;;;;5009458;28;20538;-50
2022/10/13 10:29:32;;;;;;;4.37;3.57;;;13.70;99.90;;;;;;5009430;28;20490;-50
2022/10/13 10:32:17;;;;;;;2.63;2.40;;;13.80;99.90;;;;;;5009237;28;20534;-52
2022/10/13 10:34:51;;;;;;;6.13;3.23;;;13.80;99.90;;;;;;5009063;28;20532;-50
2022/10/13 10:37:27;;;;;;;3.70;2.93;;;13.90;99.90;;;;;;5009462;28;20525;-50
2022/10/13 10:40:10;;;;;;;3.60;3.20;;;14.00;99.90;;;;;;5009003;28;20549;-50
2022/10/13 10:43:13;;;;;;;4.43;2.80;;;14.10;99.90;;;;;;5009283;28;20439;-50
2022/10/13 10:45:40;;;;;;;7.97;3.73;;;14.10;99.90;;;;;;5010645;28;20530;-51
2022/10/13 10:48:18;;;;;;;6.03;2.90;;;14.10;99.90;;;;;;5008890;28;20574;-50
2022/10/13 10:50:45;;;;;;;3.93;2.83;;;14.20;99.90;;;;;;5009440;28;20463;-50
2022/10/13 10:53:20;;;;;;;3.90;3.23;;;14.30;99.90;;;;;;5008735;28;20929;-50
2022/10/13 10:55:52;;;;;;;4.00;2.60;;;14.30;99.90;;;;;;5009324;28;20534;-50
2022/10/13 10:58:31;;;;;;;4.70;2.90;;;14.40;99.90;;;;;;5009079;28;20449;-50
2022/10/13 11:01:06;;;;;;;4.37;2.87;;;14.50;99.90;;;;;;5008602;28;20478;-50
2022/10/13 11:03:43;;;;;;;3.97;3.27;;;14.60;99.90;;;;;;5008456;28;20503;-50
2022/10/13 11:06:31;;;;;;;6.23;3.60;;;14.60;99.90;;;;;;5009263;28;20447;-50
2022/10/13 11:08:58;;;;;;;4.47;3.73;;;14.60;99.90;;;;;;5008797;28;20575;-50
2022/10/13 11:11:36;;;;;;;4.10;3.67;;;14.50;99.90;;;;;;5008767;28;20546;-52
2022/10/13 11:14:27;;;;;;;4.77;3.50;;;14.40;99.90;;;;;;5008521;28;20538;-50
2022/10/13 11:17:20;;;;;;;4.63;3.17;;;14.50;99.90;;;;;;5008930;28;20466;-50
2022/10/13 11:19:48;;;;;;;4.07;3.30;;;14.60;99.90;;;;;;5021939;28;20478;-52
2022/10/13 11:22:17;;;;;;;3.40;2.93;;;14.50;99.90;;;;;;5008731;28;20537;-50
2022/10/13 11:24:59;;;;;;;3.47;2.90;;;14.70;99.90;;;;;;5008442;28;20440;-51
2022/10/13 11:27:38;;;;;;;4.40;3.03;;;14.80;99.90;;;;;;5008895;28;20435;-50
2022/10/13 11:30:22;;;;;;;5.33;3.20;;;14.80;99.90;;;;;;5011606;28;20980;-50
2022/10/13 11:32:57;;;;;;;3.60;3.30;;;15.00;99.90;;;;;;5011833;28;20443;-51
2022/10/13 11:35:27;;;;;;;5.50;3.23;;;15.20;99.90;;;;;;5012276;28;20461;-50
2022/10/13 11:38:17;;;;;;;5.97;3.90;;;15.50;99.90;;;;;;5012097;28;20475;-50
2022/10/13 11:41:03;;;;;;;10.50;3.70;;;15.60;99.90;;;;;;5012352;28;20566;-50
2022/10/13 11:43:41;;;;;;;4.03;3.63;;;15.50;99.90;;;;;;5011503;28;20454;-50
2022/10/13 11:46:30;;;;;;;6.60;3.50;;;15.50;99.90;;;;;;5011909;28;20443;-50
2022/10/13 11:49:25;;;;;;;5.70;4.03;;;15.60;99.90;;;;;;5011512;28;20476;-51
2022/10/13 11:52:26;;;;;;;6.73;3.00;;;15.60;99.90;;;;;;5011880;28;20530;-52
2022/10/13 11:55:01;;;;;;;5.50;2.90;;;15.50;99.90;;;;;;5014103;28;21021;-51
2022/10/13 11:57:31;;;;;;;3.60;2.83;;;15.50;99.90;;;;;;5012096;28;20477;-50
2022/10/13 11:59:59;;;;;;;8.20;4.03;;;15.30;99.90;;;;;;5011628;28;20902;-51
2022/10/13 12:02:27;;;;;;;6.43;2.73;;;15.30;99.90;;;;;;5011747;28;20443;-52
2022/10/13 12:05:04;;;;;;;13.70;4.57;;;15.30;99.90;;;;;;5011268;28;21017;-51
2022/10/13 12:07:35;;;;;;;14.03;4.37;;;15.40;99.90;;;;;;5011741;28;20474;-51
2022/10/13 12:10:05;;;;;;;5.83;2.60;;;15.30;99.90;;;;;;5011095;28;20566;-51
2022/10/13 12:12:32;;;;;;;17.30;4.90;;;15.40;99.90;;;;;;5011621;28;20579;-51
2022/10/13 12:15:00;;;;;;;3.40;2.60;;;15.60;99.90;;;;;;5011039;28;20890;-51
2022/10/13 12:17:30;;;;;;;8.10;3.63;;;15.50;99.90;;;;;;5011461;28;20447;-51
2022/10/13 12:19:59;;;;;;;4.90;2.97;;;15.60;99.90;;;;;;5010693;28;20463;-51
2022/10/13 12:22:27;;;;;;;3.40;2.40;;;15.70;99.90;;;;;;5011127;28;21024;-51
2022/10/13 12:24:59;;;;;;;4.83;3.07;;;15.70;99.90;;;;;;5011415;28;20443;-51
2022/10/13 12:27:31;;;;;;;4.83;2.43;;;15.80;99.90;;;;;;5011189;28;20450;-52
2022/10/13 12:29:58;;;;;;;3.87;2.80;;;15.70;99.90;;;;;;5010800;28;20483;-51
2022/10/13 12:32:28;;;;;;;8.43;3.30;;;15.70;99.90;;;;;;5010849;28;20443;-50
2022/10/13 12:34:55;;;;;;;5.30;4.80;;;15.70;99.90;;;;;;5011225;28;20507;-51
2022/10/13 12:37:27;;;;;;;4.93;3.20;;;15.70;99.90;;;;;;5011177;28;20458;-51
2022/10/13 12:39:56;;;;;;;21.50;11.77;;;15.70;99.90;;;;;;5010200;28;20921;-51
2022/10/13 12:42:27;;;;;;;6.10;3.50;;;15.80;99.90;;;;;;5010869;28;20949;-51
2022/10/13 12:44:54;;;;;;;7.03;4.70;;;15.80;99.90;;;;;;5010718;28;20933;-51
2022/10/13 12:47:50;;;;;;;9.20;4.23;;;15.80;99.90;;;;;;5010929;28;20508;-51
2022/10/13 12:50:23;;;;;;;4.03;2.77;;;15.80;99.90;;;;;;5022835;28;20487;-52
2022/10/13 12:52:51;;;;;;;5.20;3.40;;;15.70;99.90;;;;;;5010853;28;20526;-51
2022/10/13 12:55:20;;;;;;;9.33;3.47;;;15.70;99.90;;;;;;5010526;28;20875;-52
2022/10/13 12:57:49;;;;;;;5.67;3.73;;;15.80;99.90;;;;;;5010601;28;20450;-51
2022/10/13 13:00:23;;;;;;;5.33;3.07;;;15.80;99.90;;;;;;5010554;28;20474;-53
2022/10/13 13:02:54;;;;;;;3.00;2.70;;;15.90;99.90;;;;;;5010517;28;20518;-51
2022/10/13 13:05:32;;;;;;;3.77;3.47;;;15.70;99.90;;;;;;5010920;28;20531;-51
2022/10/13 13:08:00;;;;;;;6.07;3.50;;;15.70;99.90;;;;;;5010609;28;20832;-52